Terminal Aerodrome Forecast
Issued by NWS Sterling, VA

Current Version | Previous Version | Text Only | Print | Product List | Glossary Off
Versions: 1 2 3 4 5 6 7 8 9 10 11 12 13 14 15 16 17 18 19 20

000
FTUS41 KLWX 191033 AAB
TAFMRB
TAF AMD
KMRB 191033Z 1911/2006 01003KT 4SM BR OVC030
     FM191200 36004KT 2SM BR BKN008
     FM191400 36006KT 5SM BR SCT008
     FM191600 36006KT P6SM SKC=

USA.gov is the U.S. government's official web portal to all federal, state and local government web resources and services.